sensor_id;sensor_type;location;lat;lon;timestamp;P1;durP1;ratioP1;P2;durP2;ratioP2
37495;SDS011;23346;52.088;4.746;2023-05-10T00:02:13;4.37;;;4.07;;
37495;SDS011;23346;52.088;4.746;2023-05-10T00:04:39;21.70;;;4.80;;
37495;SDS011;23346;52.088;4.746;2023-05-10T00:07:05;2.03;;;1.93;;
37495;SDS011;23346;52.088;4.746;2023-05-10T00:09:31;2.63;;;2.43;;
37495;SDS011;23346;52.088;4.746;2023-05-10T00:11:57;2.67;;;2.47;;
37495;SDS011;23346;52.088;4.746;2023-05-10T00:14:23;3.20;;;2.90;;
37495;SDS011;23346;52.088;4.746;2023-05-10T00:16:49;6.30;;;3.43;;
37495;SDS011;23346;52.088;4.746;2023-05-10T00:19:15;2.83;;;1.97;;
37495;SDS011;23346;52.088;4.746;2023-05-10T00:21:41;2.80;;;2.57;;
37495;SDS011;23346;52.088;4.746;2023-05-10T00:24:07;3.67;;;2.53;;
37495;SDS011;23346;52.088;4.746;2023-05-10T00:26:33;3.67;;;3.13;;
37495;SDS011;23346;52.088;4.746;2023-05-10T00:28:59;2.97;;;2.77;;
37495;SDS011;23346;52.088;4.746;2023-05-10T00:31:25;7.30;;;3.33;;
37495;SDS011;23346;52.088;4.746;2023-05-10T00:33:51;8.50;;;2.77;;
37495;SDS011;23346;52.088;4.746;2023-05-10T00:36:17;3.03;;;2.17;;
37495;SDS011;23346;52.088;4.746;2023-05-10T00:38:43;4.23;;;2.23;;
37495;SDS011;23346;52.088;4.746;2023-05-10T00:41:09;3.23;;;3.03;;
37495;SDS011;23346;52.088;4.746;2023-05-10T00:43:35;2.03;;;1.93;;
37495;SDS011;23346;52.088;4.746;2023-05-10T00:46:01;3.43;;;3.13;;
37495;SDS011;23346;52.088;4.746;2023-05-10T00:48:28;2.27;;;2.17;;
37495;SDS011;23346;52.088;4.746;2023-05-10T00:50:54;8.73;;;4.13;;
37495;SDS011;23346;52.088;4.746;2023-05-10T00:53:20;2.73;;;2.57;;
37495;SDS011;23346;52.088;4.746;2023-05-10T00:55:47;2.50;;;1.30;;
37495;SDS011;23346;52.088;4.746;2023-05-10T00:58:12;5.57;;;3.93;;
37495;SDS011;23346;52.088;4.746;2023-05-10T01:00:38;5.73;;;4.13;;
37495;SDS011;23346;52.088;4.746;2023-05-10T01:03:07;4.27;;;3.70;;
37495;SDS011;23346;52.088;4.746;2023-05-10T01:05:33;2.73;;;2.30;;
37495;SDS011;23346;52.088;4.746;2023-05-10T01:07:59;0.97;;;0.97;;
37495;SDS011;23346;52.088;4.746;2023-05-10T01:10:24;3.87;;;3.50;;
37495;SDS011;23346;52.088;4.746;2023-05-10T01:12:51;4.00;;;3.70;;
37495;SDS011;23346;52.088;4.746;2023-05-10T01:15:17;2.90;;;2.73;;
37495;SDS011;23346;52.088;4.746;2023-05-10T01:17:44;2.27;;;1.97;;
37495;SDS011;23346;52.088;4.746;2023-05-10T01:20:10;5.30;;;3.20;;
37495;SDS011;23346;52.088;4.746;2023-05-10T01:25:26;4.60;;;4.03;;
37495;SDS011;23346;52.088;4.746;2023-05-10T01:33:05;5.13;;;4.23;;
37495;SDS011;23346;52.088;4.746;2023-05-10T01:40:38;5.23;;;4.07;;
37495;SDS011;23346;52.088;4.746;2023-05-10T01:43:08;4.03;;;3.27;;
37495;SDS011;23346;52.088;4.746;2023-05-10T01:45:58;4.17;;;3.13;;
37495;SDS011;23346;52.088;4.746;2023-05-10T01:48:25;3.77;;;3.47;;
37495;SDS011;23346;52.088;4.746;2023-05-10T01:50:53;10.87;;;5.30;;
37495;SDS011;23346;52.088;4.746;2023-05-10T01:53:19;3.67;;;3.40;;
37495;SDS011;23346;52.088;4.746;2023-05-10T01:55:49;2.87;;;2.67;;
37495;SDS011;23346;52.088;4.746;2023-05-10T01:58:19;22.20;;;5.13;;
37495;SDS011;23346;52.088;4.746;2023-05-10T02:00:46;9.00;;;6.23;;
37495;SDS011;23346;52.088;4.746;2023-05-10T02:03:12;8.03;;;3.80;;
37495;SDS011;23346;52.088;4.746;2023-05-10T02:05:40;25.73;;;6.73;;
37495;SDS011;23346;52.088;4.746;2023-05-10T02:08:07;4.77;;;4.20;;
37495;SDS011;23346;52.088;4.746;2023-05-10T02:10:34;3.43;;;3.03;;
37495;SDS011;23346;52.088;4.746;2023-05-10T02:13:00;8.07;;;5.67;;
37495;SDS011;23346;52.088;4.746;2023-05-10T02:15:27;3.87;;;3.53;;
37495;SDS011;23346;52.088;4.746;2023-05-10T02:17:55;8.93;;;6.37;;
37495;SDS011;23346;52.088;4.746;2023-05-10T02:20:21;4.70;;;4.27;;
37495;SDS011;23346;52.088;4.746;2023-05-10T02:22:48;7.37;;;4.70;;
37495;SDS011;23346;52.088;4.746;2023-05-10T02:25:14;7.77;;;7.07;;
37495;SDS011;23346;52.088;4.746;2023-05-10T02:27:41;8.70;;;5.67;;
37495;SDS011;23346;52.088;4.746;2023-05-10T02:30:08;18.50;;;5.83;;
37495;SDS011;23346;52.088;4.746;2023-05-10T02:32:36;7.50;;;3.77;;
37495;SDS011;23346;52.088;4.746;2023-05-10T02:35:02;9.37;;;4.67;;
37495;SDS011;23346;52.088;4.746;2023-05-10T02:37:28;15.47;;;5.13;;
37495;SDS011;23346;52.088;4.746;2023-05-10T02:39:55;7.80;;;4.90;;
37495;SDS011;23346;52.088;4.746;2023-05-10T02:42:26;8.13;;;5.13;;
37495;SDS011;23346;52.088;4.746;2023-05-10T02:44:53;10.93;;;6.90;;
37495;SDS011;23346;52.088;4.746;2023-05-10T02:47:20;8.40;;;5.00;;
37495;SDS011;23346;52.088;4.746;2023-05-10T02:49:46;8.73;;;5.20;;
37495;SDS011;23346;52.088;4.746;2023-05-10T02:52:13;5.57;;;4.63;;
37495;SDS011;23346;52.088;4.746;2023-05-10T02:54:44;6.73;;;3.93;;
37495;SDS011;23346;52.088;4.746;2023-05-10T02:57:11;13.87;;;6.10;;
37495;SDS011;23346;52.088;4.746;2023-05-10T02:59:39;4.60;;;4.17;;
37495;SDS011;23346;52.088;4.746;2023-05-10T03:02:07;16.07;;;5.13;;
37495;SDS011;23346;52.088;4.746;2023-05-10T03:04:33;12.23;;;4.50;;
37495;SDS011;23346;52.088;4.746;2023-05-10T03:06:59;7.60;;;6.90;;
37495;SDS011;23346;52.088;4.746;2023-05-10T03:09:25;5.47;;;3.00;;
37495;SDS011;23346;52.088;4.746;2023-05-10T03:12:05;12.63;;;6.47;;
37495;SDS011;23346;52.088;4.746;2023-05-10T03:17:10;18.27;;;4.73;;
37495;SDS011;23346;52.088;4.746;2023-05-10T03:19:43;5.47;;;5.00;;
37495;SDS011;23346;52.088;4.746;2023-05-10T03:22:11;10.00;;;6.00;;
37495;SDS011;23346;52.088;4.746;2023-05-10T03:24:39;17.30;;;7.57;;
37495;SDS011;23346;52.088;4.746;2023-05-10T03:27:05;20.57;;;6.30;;
37495;SDS011;23346;52.088;4.746;2023-05-10T03:29:31;23.90;;;6.27;;
37495;SDS011;23346;52.088;4.746;2023-05-10T03:32:00;9.50;;;4.97;;
37495;SDS011;23346;52.088;4.746;2023-05-10T03:34:26;6.47;;;5.87;;
37495;SDS011;23346;52.088;4.746;2023-05-10T03:36:52;11.40;;;8.47;;
37495;SDS011;23346;52.088;4.746;2023-05-10T03:39:18;12.10;;;5.93;;
37495;SDS011;23346;52.088;4.746;2023-05-10T03:41:46;9.20;;;5.20;;
37495;SDS011;23346;52.088;4.746;2023-05-10T03:44:12;6.60;;;4.00;;
37495;SDS011;23346;52.088;4.746;2023-05-10T03:46:38;5.10;;;4.47;;
37495;SDS011;23346;52.088;4.746;2023-05-10T03:49:03;9.90;;;7.00;;
37495;SDS011;23346;52.088;4.746;2023-05-10T03:51:29;8.50;;;5.43;;
37495;SDS011;23346;52.088;4.746;2023-05-10T03:53:56;9.17;;;7.37;;
37495;SDS011;23346;52.088;4.746;2023-05-10T03:56:22;5.40;;;3.93;;
37495;SDS011;23346;52.088;4.746;2023-05-10T03:58:47;4.33;;;3.93;;
37495;SDS011;23346;52.088;4.746;2023-05-10T04:01:13;9.73;;;7.33;;
37495;SDS011;23346;52.088;4.746;2023-05-10T04:03:39;13.27;;;4.77;;
37495;SDS011;23346;52.088;4.746;2023-05-10T04:06:05;9.80;;;8.33;;
37495;SDS011;23346;52.088;4.746;2023-05-10T04:08:34;14.37;;;5.77;;
37495;SDS011;23346;52.088;4.746;2023-05-10T04:11:10;8.57;;;7.17;;
37495;SDS011;23346;52.088;4.746;2023-05-10T04:13:36;6.47;;;5.73;;
37495;SDS011;23346;52.088;4.746;2023-05-10T04:16:03;27.40;;;6.93;;
37495;SDS011;23346;52.088;4.746;2023-05-10T04:18:29;8.20;;;5.50;;
37495;SDS011;23346;52.088;4.746;2023-05-10T04:20:55;14.23;;;4.70;;
37495;SDS011;23346;52.088;4.746;2023-05-10T04:23:21;7.83;;;6.53;;
37495;SDS011;23346;52.088;4.746;2023-05-10T04:25:47;6.50;;;4.47;;
37495;SDS011;23346;52.088;4.746;2023-05-10T04:28:12;4.73;;;2.73;;
37495;SDS011;23346;52.088;4.746;2023-05-10T04:30:38;24.93;;;7.97;;
37495;SDS011;23346;52.088;4.746;2023-05-10T04:33:05;7.73;;;5.17;;
37495;SDS011;23346;52.088;4.746;2023-05-10T04:35:31;10.53;;;7.23;;
37495;SDS011;23346;52.088;4.746;2023-05-10T04:37:57;7.73;;;5.03;;
37495;SDS011;23346;52.088;4.746;2023-05-10T04:40:23;7.17;;;4.40;;
37495;SDS011;23346;52.088;4.746;2023-05-10T04:42:49;15.20;;;6.33;;
37495;SDS011;23346;52.088;4.746;2023-05-10T04:45:15;4.93;;;4.43;;
37495;SDS011;23346;52.088;4.746;2023-05-10T04:47:41;7.07;;;4.00;;
37495;SDS011;23346;52.088;4.746;2023-05-10T04:50:07;14.13;;;6.30;;
37495;SDS011;23346;52.088;4.746;2023-05-10T04:52:33;14.87;;;6.50;;
37495;SDS011;23346;52.088;4.746;2023-05-10T04:54:59;16.67;;;5.57;;
37495;SDS011;23346;52.088;4.746;2023-05-10T04:57:25;6.27;;;4.40;;
37495;SDS011;23346;52.088;4.746;2023-05-10T04:59:51;6.73;;;5.10;;
37495;SDS011;23346;52.088;4.746;2023-05-10T05:02:17;8.87;;;6.47;;
37495;SDS011;23346;52.088;4.746;2023-05-10T05:04:43;19.07;;;4.40;;
37495;SDS011;23346;52.088;4.746;2023-05-10T05:07:09;9.47;;;5.13;;
37495;SDS011;23346;52.088;4.746;2023-05-10T05:09:35;11.80;;;3.70;;
37495;SDS011;23346;52.088;4.746;2023-05-10T05:12:01;10.60;;;3.53;;
37495;SDS011;23346;52.088;4.746;2023-05-10T05:14:27;8.33;;;2.90;;
37495;SDS011;23346;52.088;4.746;2023-05-10T05:16:53;5.00;;;3.90;;
37495;SDS011;23346;52.088;4.746;2023-05-10T05:19:19;6.63;;;4.77;;
37495;SDS011;23346;52.088;4.746;2023-05-10T05:21:45;7.47;;;4.17;;
37495;SDS011;23346;52.088;4.746;2023-05-10T05:24:11;2.27;;;2.17;;
37495;SDS011;23346;52.088;4.746;2023-05-10T05:26:37;5.17;;;4.67;;
37495;SDS011;23346;52.088;4.746;2023-05-10T05:29:03;4.10;;;3.80;;
37495;SDS011;23346;52.088;4.746;2023-05-10T05:31:29;2.17;;;2.07;;
37495;SDS011;23346;52.088;4.746;2023-05-10T05:33:55;4.93;;;2.60;;
37495;SDS011;23346;52.088;4.746;2023-05-10T05:36:21;2.67;;;2.47;;
37495;SDS011;23346;52.088;4.746;2023-05-10T05:38:47;3.77;;;3.47;;
37495;SDS011;23346;52.088;4.746;2023-05-10T05:41:13;2.80;;;1.87;;
37495;SDS011;23346;52.088;4.746;2023-05-10T05:43:39;3.47;;;2.90;;
37495;SDS011;23346;52.088;4.746;2023-05-10T05:46:05;1.83;;;1.70;;
37495;SDS011;23346;52.088;4.746;2023-05-10T05:48:31;8.33;;;4.83;;
37495;SDS011;23346;52.088;4.746;2023-05-10T05:50:57;6.30;;;3.97;;
37495;SDS011;23346;52.088;4.746;2023-05-10T05:53:24;12.27;;;1.60;;
37495;SDS011;23346;52.088;4.746;2023-05-10T05:55:50;1.80;;;1.70;;
37495;SDS011;23346;52.088;4.746;2023-05-10T05:58:18;4.83;;;3.57;;
37495;SDS011;23346;52.088;4.746;2023-05-10T06:00:43;3.40;;;2.67;;
37495;SDS011;23346;52.088;4.746;2023-05-10T06:03:09;2.97;;;2.60;;
37495;SDS011;23346;52.088;4.746;2023-05-10T06:05:35;10.20;;;2.67;;
37495;SDS011;23346;52.088;4.746;2023-05-10T06:08:01;0.80;;;0.80;;
37495;SDS011;23346;52.088;4.746;2023-05-10T06:10:27;1.90;;;1.77;;
37495;SDS011;23346;52.088;4.746;2023-05-10T06:12:53;2.50;;;2.30;;
37495;SDS011;23346;52.088;4.746;2023-05-10T06:15:19;2.73;;;2.53;;
37495;SDS011;23346;52.088;4.746;2023-05-10T06:17:45;1.37;;;1.27;;
37495;SDS011;23346;52.088;4.746;2023-05-10T06:20:14;10.27;;;2.30;;
37495;SDS011;23346;52.088;4.746;2023-05-10T06:22:40;2.40;;;1.75;;
37495;SDS011;23346;52.088;4.746;2023-05-10T06:25:06;1.27;;;1.17;;
37495;SDS011;23346;52.088;4.746;2023-05-10T06:27:32;2.72;;;1.25;;
37495;SDS011;23346;52.088;4.746;2023-05-10T06:29:58;0.88;;;0.88;;
37495;SDS011;23346;52.088;4.746;2023-05-10T06:32:24;1.88;;;1.77;;
37495;SDS011;23346;52.088;4.746;2023-05-10T06:34:50;1.63;;;1.13;;
37495;SDS011;23346;52.088;4.746;2023-05-10T06:37:16;1.58;;;1.48;;
37495;SDS011;23346;52.088;4.746;2023-05-10T06:39:42;1.42;;;1.33;;
37495;SDS011;23346;52.088;4.746;2023-05-10T06:42:08;4.57;;;2.42;;
37495;SDS011;23346;52.088;4.746;2023-05-10T06:44:34;2.77;;;1.50;;
37495;SDS011;23346;52.088;4.746;2023-05-10T06:46:59;7.75;;;1.42;;
37495;SDS011;23346;52.088;4.746;2023-05-10T06:49:25;1.97;;;1.57;;
37495;SDS011;23346;52.088;4.746;2023-05-10T06:51:51;1.47;;;0.87;;
37495;SDS011;23346;52.088;4.746;2023-05-10T06:54:17;3.75;;;1.55;;
37495;SDS011;23346;52.088;4.746;2023-05-10T06:56:43;0.73;;;0.73;;
37495;SDS011;23346;52.088;4.746;2023-05-10T06:59:09;2.93;;;1.73;;
37495;SDS011;23346;52.088;4.746;2023-05-10T07:01:35;1.33;;;1.23;;
37495;SDS011;23346;52.088;4.746;2023-05-10T07:04:01;0.60;;;0.60;;
37495;SDS011;23346;52.088;4.746;2023-05-10T07:06:27;1.25;;;1.00;;
37495;SDS011;23346;52.088;4.746;2023-05-10T07:08:53;0.98;;;0.98;;
37495;SDS011;23346;52.088;4.746;2023-05-10T07:11:19;2.22;;;1.95;;
37495;SDS011;23346;52.088;4.746;2023-05-10T07:13:45;0.90;;;0.90;;
37495;SDS011;23346;52.088;4.746;2023-05-10T07:16:11;1.13;;;1.05;;
37495;SDS011;23346;52.088;4.746;2023-05-10T07:18:37;0.68;;;0.68;;
37495;SDS011;23346;52.088;4.746;2023-05-10T07:21:03;0.88;;;0.73;;
37495;SDS011;23346;52.088;4.746;2023-05-10T07:23:29;0.85;;;0.85;;
37495;SDS011;23346;52.088;4.746;2023-05-10T07:25:55;1.27;;;1.23;;
37495;SDS011;23346;52.088;4.746;2023-05-10T07:28:22;0.57;;;0.57;;
37495;SDS011;23346;52.088;4.746;2023-05-10T07:30:49;1.27;;;0.93;;
37495;SDS011;23346;52.088;4.746;2023-05-10T07:33:15;1.83;;;0.63;;
37495;SDS011;23346;52.088;4.746;2023-05-10T07:35:41;1.48;;;1.38;;
37495;SDS011;23346;52.088;4.746;2023-05-10T07:38:07;0.30;;;0.30;;
37495;SDS011;23346;52.088;4.746;2023-05-10T07:40:35;0.20;;;0.20;;
37495;SDS011;23346;52.088;4.746;2023-05-10T07:43:01;0.88;;;0.88;;
37495;SDS011;23346;52.088;4.746;2023-05-10T07:45:27;0.80;;;0.80;;
37495;SDS011;23346;52.088;4.746;2023-05-10T07:47:53;0.68;;;0.68;;
37495;SDS011;23346;52.088;4.746;2023-05-10T07:50:20;2.00;;;1.25;;
37495;SDS011;23346;52.088;4.746;2023-05-10T07:52:46;1.92;;;0.90;;
37495;SDS011;23346;52.088;4.746;2023-05-10T07:55:13;0.93;;;0.93;;
37495;SDS011;23346;52.088;4.746;2023-05-10T07:57:39;1.88;;;1.00;;
37495;SDS011;23346;52.088;4.746;2023-05-10T08:00:05;0.50;;;0.50;;
37495;SDS011;23346;52.088;4.746;2023-05-10T08:02:31;0.57;;;0.57;;
37495;SDS011;23346;52.088;4.746;2023-05-10T08:04:58;0.90;;;0.90;;
37495;SDS011;23346;52.088;4.746;2023-05-10T08:07:24;0.88;;;0.80;;
37495;SDS011;23346;52.088;4.746;2023-05-10T08:09:50;1.52;;;0.50;;
37495;SDS011;23346;52.088;4.746;2023-05-10T08:12:16;1.75;;;1.30;;
37495;SDS011;23346;52.088;4.746;2023-05-10T08:14:42;0.60;;;0.60;;
37495;SDS011;23346;52.088;4.746;2023-05-10T08:17:08;0.45;;;0.45;;
37495;SDS011;23346;52.088;4.746;2023-05-10T08:19:34;1.98;;;0.85;;
37495;SDS011;23346;52.088;4.746;2023-05-10T08:22:00;1.83;;;1.13;;
37495;SDS011;23346;52.088;4.746;2023-05-10T08:24:25;1.02;;;0.98;;
37495;SDS011;23346;52.088;4.746;2023-05-10T08:26:51;2.05;;;1.33;;
37495;SDS011;23346;52.088;4.746;2023-05-10T08:29:17;0.60;;;0.60;;
37495;SDS011;23346;52.088;4.746;2023-05-10T08:31:43;1.30;;;0.82;;
37495;SDS011;23346;52.088;4.746;2023-05-10T08:34:10;0.85;;;0.85;;
37495;SDS011;23346;52.088;4.746;2023-05-10T08:36:36;0.70;;;0.70;;
37495;SDS011;23346;52.088;4.746;2023-05-10T08:39:02;0.45;;;0.45;;
37495;SDS011;23346;52.088;4.746;2023-05-10T08:41:28;0.70;;;0.70;;
37495;SDS011;23346;52.088;4.746;2023-05-10T08:43:55;7.05;;;1.83;;
37495;SDS011;23346;52.088;4.746;2023-05-10T08:46:22;0.70;;;0.70;;
37495;SDS011;23346;52.088;4.746;2023-05-10T08:48:48;1.88;;;1.50;;
37495;SDS011;23346;52.088;4.746;2023-05-10T08:51:18;0.65;;;0.65;;
37495;SDS011;23346;52.088;4.746;2023-05-10T08:53:46;2.67;;;1.20;;
37495;SDS011;23346;52.088;4.746;2023-05-10T08:56:12;0.50;;;0.50;;
37495;SDS011;23346;52.088;4.746;2023-05-10T08:58:40;0.85;;;0.68;;
37495;SDS011;23346;52.088;4.746;2023-05-10T09:01:06;1.10;;;0.50;;
37495;SDS011;23346;52.088;4.746;2023-05-10T09:03:33;0.45;;;0.45;;
37495;SDS011;23346;52.088;4.746;2023-05-10T09:05:59;0.80;;;0.80;;
37495;SDS011;23346;52.088;4.746;2023-05-10T09:08:25;0.65;;;0.65;;
37495;SDS011;23346;52.088;4.746;2023-05-10T09:10:51;1.13;;;1.02;;
37495;SDS011;23346;52.088;4.746;2023-05-10T09:13:17;1.45;;;0.77;;
37495;SDS011;23346;52.088;4.746;2023-05-10T09:15:44;0.93;;;0.90;;
37495;SDS011;23346;52.088;4.746;2023-05-10T09:18:11;1.38;;;1.27;;
37495;SDS011;23346;52.088;4.746;2023-05-10T09:20:37;1.77;;;1.00;;
37495;SDS011;23346;52.088;4.746;2023-05-10T09:23:02;2.92;;;1.33;;
37495;SDS011;23346;52.088;4.746;2023-05-10T09:25:28;0.75;;;0.75;;
37495;SDS011;23346;52.088;4.746;2023-05-10T09:27:55;2.25;;;1.65;;
37495;SDS011;23346;52.088;4.746;2023-05-10T09:30:25;0.45;;;0.45;;
37495;SDS011;23346;52.088;4.746;2023-05-10T09:32:51;0.40;;;0.40;;
37495;SDS011;23346;52.088;4.746;2023-05-10T09:35:18;0.47;;;0.47;;
37495;SDS011;23346;52.088;4.746;2023-05-10T09:37:45;0.70;;;0.43;;
37495;SDS011;23346;52.088;4.746;2023-05-10T09:40:19;0.25;;;0.25;;
37495;SDS011;23346;52.088;4.746;2023-05-10T09:42:53;0.52;;;0.52;;
37495;SDS011;23346;52.088;4.746;2023-05-10T09:45:19;0.55;;;0.55;;
37495;SDS011;23346;52.088;4.746;2023-05-10T09:47:45;1.77;;;1.23;;
37495;SDS011;23346;52.088;4.746;2023-05-10T09:50:11;0.50;;;0.50;;
37495;SDS011;23346;52.088;4.746;2023-05-10T09:55:12;0.40;;;0.40;;
37495;SDS011;23346;52.088;4.746;2023-05-10T09:57:39;0.50;;;0.50;;
37495;SDS011;23346;52.088;4.746;2023-05-10T10:00:05;1.85;;;1.50;;
37495;SDS011;23346;52.088;4.746;2023-05-10T10:02:31;0.63;;;0.63;;
37495;SDS011;23346;52.088;4.746;2023-05-10T10:04:58;1.77;;;0.60;;
37495;SDS011;23346;52.088;4.746;2023-05-10T10:07:26;0.90;;;0.82;;
37495;SDS011;23346;52.088;4.746;2023-05-10T10:09:53;1.42;;;0.60;;
37495;SDS011;23346;52.088;4.746;2023-05-10T10:12:19;2.60;;;1.02;;
37495;SDS011;23346;52.088;4.746;2023-05-10T10:14:48;0.38;;;0.38;;
37495;SDS011;23346;52.088;4.746;2023-05-10T10:17:15;0.20;;;0.20;;
37495;SDS011;23346;52.088;4.746;2023-05-10T10:19:41;0.80;;;0.80;;
37495;SDS011;23346;52.088;4.746;2023-05-10T10:22:07;1.02;;;0.93;;
37495;SDS011;23346;52.088;4.746;2023-05-10T10:24:35;1.80;;;1.13;;
37495;SDS011;23346;52.088;4.746;2023-05-10T10:27:09;0.60;;;0.40;;
37495;SDS011;23346;52.088;4.746;2023-05-10T10:29:38;0.30;;;0.30;;
37495;SDS011;23346;52.088;4.746;2023-05-10T10:32:10;0.80;;;0.20;;
37495;SDS011;23346;52.088;4.746;2023-05-10T10:34:38;0.28;;;0.20;;
37495;SDS011;23346;52.088;4.746;2023-05-10T10:37:04;1.30;;;0.17;;
37495;SDS011;23346;52.088;4.746;2023-05-10T10:39:31;0.22;;;0.22;;
37495;SDS011;23346;52.088;4.746;2023-05-10T10:41:58;0.30;;;0.30;;
37495;SDS011;23346;52.088;4.746;2023-05-10T10:44:26;0.10;;;0.10;;
37495;SDS011;23346;52.088;4.746;2023-05-10T10:49:24;0.10;;;0.10;;
37495;SDS011;23346;52.088;4.746;2023-05-10T10:54:35;0.88;;;0.75;;
37495;SDS011;23346;52.088;4.746;2023-05-10T10:57:10;0.98;;;0.70;;
37495;SDS011;23346;52.088;4.746;2023-05-10T10:59:40;0.77;;;0.77;;
37495;SDS011;23346;52.088;4.746;2023-05-10T11:02:07;1.33;;;0.40;;
37495;SDS011;23346;52.088;4.746;2023-05-10T11:04:43;1.58;;;0.50;;
37495;SDS011;23346;52.088;4.746;2023-05-10T11:07:17;1.20;;;1.00;;
37495;SDS011;23346;52.088;4.746;2023-05-10T11:09:43;1.67;;;1.33;;
37495;SDS011;23346;52.088;4.746;2023-05-10T11:12:10;2.08;;;1.58;;
37495;SDS011;23346;52.088;4.746;2023-05-10T11:14:36;0.95;;;0.77;;
37495;SDS011;23346;52.088;4.746;2023-05-10T11:17:02;1.20;;;0.75;;
37495;SDS011;23346;52.088;4.746;2023-05-10T11:20:06;3.30;;;1.58;;
37495;SDS011;23346;52.088;4.746;2023-05-10T11:22:48;0.35;;;0.35;;
37495;SDS011;23346;52.088;4.746;2023-05-10T11:25:15;0.90;;;0.68;;
37495;SDS011;23346;52.088;4.746;2023-05-10T11:27:41;4.30;;;1.38;;
37495;SDS011;23346;52.088;4.746;2023-05-10T11:30:07;0.35;;;0.35;;
37495;SDS011;23346;52.088;4.746;2023-05-10T11:32:36;1.13;;;0.90;;
37495;SDS011;23346;52.088;4.746;2023-05-10T11:35:09;1.38;;;1.27;;
37495;SDS011;23346;52.088;4.746;2023-05-10T11:37:35;1.85;;;1.20;;
37495;SDS011;23346;52.088;4.746;2023-05-10T11:40:02;1.63;;;1.42;;
37495;SDS011;23346;52.088;4.746;2023-05-10T11:42:28;0.45;;;0.45;;
37495;SDS011;23346;52.088;4.746;2023-05-10T11:44:55;1.80;;;1.25;;
37495;SDS011;23346;52.088;4.746;2023-05-10T11:47:20;2.97;;;1.55;;
37495;SDS011;23346;52.088;4.746;2023-05-10T11:49:47;22.80;;;2.30;;
37495;SDS011;23346;52.088;4.746;2023-05-10T11:52:13;2.95;;;2.33;;
37495;SDS011;23346;52.088;4.746;2023-05-10T11:54:50;0.70;;;0.52;;
37495;SDS011;23346;52.088;4.746;2023-05-10T11:57:17;0.77;;;0.77;;
37495;SDS011;23346;52.088;4.746;2023-05-10T11:59:43;1.10;;;1.10;;
37495;SDS011;23346;52.088;4.746;2023-05-10T12:02:10;0.82;;;0.80;;
37495;SDS011;23346;52.088;4.746;2023-05-10T12:04:36;1.10;;;0.85;;
37495;SDS011;23346;52.088;4.746;2023-05-10T12:07:02;1.17;;;1.05;;
37495;SDS011;23346;52.088;4.746;2023-05-10T12:09:28;2.60;;;0.60;;
37495;SDS011;23346;52.088;4.746;2023-05-10T12:11:57;0.75;;;0.75;;
37495;SDS011;23346;52.088;4.746;2023-05-10T12:14:23;0.95;;;0.82;;
37495;SDS011;23346;52.088;4.746;2023-05-10T12:16:49;0.60;;;0.60;;
37495;SDS011;23346;52.088;4.746;2023-05-10T12:19:18;0.73;;;0.73;;
37495;SDS011;23346;52.088;4.746;2023-05-10T12:21:47;1.25;;;1.08;;
37495;SDS011;23346;52.088;4.746;2023-05-10T12:24:13;1.15;;;1.05;;
37495;SDS011;23346;52.088;4.746;2023-05-10T12:26:42;0.88;;;0.77;;
37495;SDS011;23346;52.088;4.746;2023-05-10T12:29:14;0.75;;;0.75;;
37495;SDS011;23346;52.088;4.746;2023-05-10T12:31:57;1.58;;;0.98;;
37495;SDS011;23346;52.088;4.746;2023-05-10T12:34:41;1.00;;;0.63;;
37495;SDS011;23346;52.088;4.746;2023-05-10T12:37:07;2.13;;;0.98;;
37495;SDS011;23346;52.088;4.746;2023-05-10T12:39:40;0.68;;;0.68;;
37495;SDS011;23346;52.088;4.746;2023-05-10T12:42:06;1.42;;;0.90;;
37495;SDS011;23346;52.088;4.746;2023-05-10T12:44:32;1.45;;;0.65;;
37495;SDS011;23346;52.088;4.746;2023-05-10T12:46:58;1.55;;;0.77;;
37495;SDS011;23346;52.088;4.746;2023-05-10T12:49:24;1.27;;;0.75;;
37495;SDS011;23346;52.088;4.746;2023-05-10T12:51:50;0.25;;;0.25;;
37495;SDS011;23346;52.088;4.746;2023-05-10T12:54:16;1.00;;;0.98;;
37495;SDS011;23346;52.088;4.746;2023-05-10T12:56:42;1.02;;;0.73;;
37495;SDS011;23346;52.088;4.746;2023-05-10T12:59:08;0.88;;;0.70;;
37495;SDS011;23346;52.088;4.746;2023-05-10T13:01:34;1.17;;;0.63;;
37495;SDS011;23346;52.088;4.746;2023-05-10T13:04:00;0.93;;;0.68;;
37495;SDS011;23346;52.088;4.746;2023-05-10T13:06:26;1.25;;;0.57;;
37495;SDS011;23346;52.088;4.746;2023-05-10T13:08:52;1.17;;;0.90;;
37495;SDS011;23346;52.088;4.746;2023-05-10T13:11:18;0.88;;;0.70;;
37495;SDS011;23346;52.088;4.746;2023-05-10T13:13:45;0.30;;;0.30;;
37495;SDS011;23346;52.088;4.746;2023-05-10T13:16:10;2.08;;;0.95;;
37495;SDS011;23346;52.088;4.746;2023-05-10T13:18:36;0.80;;;0.80;;
37495;SDS011;23346;52.088;4.746;2023-05-10T13:21:02;2.13;;;0.52;;
37495;SDS011;23346;52.088;4.746;2023-05-10T13:23:30;2.20;;;1.40;;
37495;SDS011;23346;52.088;4.746;2023-05-10T13:25:56;1.92;;;1.40;;
37495;SDS011;23346;52.088;4.746;2023-05-10T13:28:22;1.30;;;0.65;;
37495;SDS011;23346;52.088;4.746;2023-05-10T13:30:48;3.55;;;1.08;;
37495;SDS011;23346;52.088;4.746;2023-05-10T13:33:14;1.33;;;0.88;;
37495;SDS011;23346;52.088;4.746;2023-05-10T13:35:40;0.40;;;0.40;;
37495;SDS011;23346;52.088;4.746;2023-05-10T13:38:06;0.28;;;0.28;;
37495;SDS011;23346;52.088;4.746;2023-05-10T13:40:32;0.65;;;0.65;;
37495;SDS011;23346;52.088;4.746;2023-05-10T13:42:58;1.10;;;0.95;;
37495;SDS011;23346;52.088;4.746;2023-05-10T13:45:24;1.33;;;1.00;;
37495;SDS011;23346;52.088;4.746;2023-05-10T13:47:50;0.32;;;0.30;;
37495;SDS011;23346;52.088;4.746;2023-05-10T13:50:17;0.73;;;0.63;;
37495;SDS011;23346;52.088;4.746;2023-05-10T13:52:43;0.40;;;0.40;;
37495;SDS011;23346;52.088;4.746;2023-05-10T13:55:09;1.92;;;1.33;;
37495;SDS011;23346;52.088;4.746;2023-05-10T13:57:37;3.53;;;1.27;;
37495;SDS011;23346;52.088;4.746;2023-05-10T14:00:03;11.82;;;1.70;;
37495;SDS011;23346;52.088;4.746;2023-05-10T14:02:29;15.40;;;0.98;;
37495;SDS011;23346;52.088;4.746;2023-05-10T14:04:55;0.73;;;0.68;;
37495;SDS011;23346;52.088;4.746;2023-05-10T14:07:21;1.13;;;0.85;;
37495;SDS011;23346;52.088;4.746;2023-05-10T14:09:47;0.60;;;0.60;;
37495;SDS011;23346;52.088;4.746;2023-05-10T14:12:13;0.88;;;0.43;;
37495;SDS011;23346;52.088;4.746;2023-05-10T14:14:39;0.85;;;0.65;;
37495;SDS011;23346;52.088;4.746;2023-05-10T14:17:05;1.25;;;0.93;;
37495;SDS011;23346;52.088;4.746;2023-05-10T14:19:31;0.68;;;0.50;;
37495;SDS011;23346;52.088;4.746;2023-05-10T14:21:58;0.75;;;0.75;;
37495;SDS011;23346;52.088;4.746;2023-05-10T14:24:24;0.90;;;0.90;;
37495;SDS011;23346;52.088;4.746;2023-05-10T14:26:50;0.20;;;0.20;;
37495;SDS011;23346;52.088;4.746;2023-05-10T14:29:19;0.77;;;0.63;;
37495;SDS011;23346;52.088;4.746;2023-05-10T14:31:45;1.42;;;0.68;;
37495;SDS011;23346;52.088;4.746;2023-05-10T14:34:11;0.43;;;0.43;;
37495;SDS011;23346;52.088;4.746;2023-05-10T14:36:37;0.82;;;0.60;;
37495;SDS011;23346;52.088;4.746;2023-05-10T14:39:03;0.63;;;0.63;;
37495;SDS011;23346;52.088;4.746;2023-05-10T14:41:29;1.90;;;1.48;;
37495;SDS011;23346;52.088;4.746;2023-05-10T14:43:55;9.98;;;5.18;;
37495;SDS011;23346;52.088;4.746;2023-05-10T14:46:21;14.00;;;6.45;;
37495;SDS011;23346;52.088;4.746;2023-05-10T14:48:47;13.32;;;6.30;;
37495;SDS011;23346;52.088;4.746;2023-05-10T14:51:13;10.43;;;5.97;;
37495;SDS011;23346;52.088;4.746;2023-05-10T14:53:39;11.77;;;6.20;;
37495;SDS011;23346;52.088;4.746;2023-05-10T14:56:05;11.32;;;6.80;;
37495;SDS011;23346;52.088;4.746;2023-05-10T14:58:31;11.57;;;6.32;;
37495;SDS011;23346;52.088;4.746;2023-05-10T15:00:57;9.80;;;5.70;;
37495;SDS011;23346;52.088;4.746;2023-05-10T15:03:23;11.00;;;5.55;;
37495;SDS011;23346;52.088;4.746;2023-05-10T15:05:49;8.95;;;5.55;;
37495;SDS011;23346;52.088;4.746;2023-05-10T15:08:16;10.65;;;5.32;;